createdAt,value
2023-04-18T00:00:33.870Z,7.45
2023-04-18T00:01:34.109Z,7.40
2023-04-18T00:02:33.925Z,7.35
2023-04-18T00:03:34.271Z,7.32
2023-04-18T00:04:34.665Z,7.29
2023-04-18T00:05:33.810Z,7.26
2023-04-18T00:06:33.810Z,7.23
2023-04-18T00:07:33.790Z,7.19
2023-04-18T00:08:33.792Z,7.16
2023-04-18T00:09:33.788Z,7.11
2023-04-18T00:10:33.730Z,7.06
2023-04-18T00:11:33.763Z,7.01
2023-04-18T00:12:34.490Z,6.98
2023-04-18T00:13:33.711Z,6.95
2023-04-18T00:14:33.703Z,6.92
2023-04-18T00:15:33.667Z,6.89
2023-04-18T00:16:33.724Z,6.85
2023-04-18T00:17:33.688Z,6.81
2023-04-18T00:18:33.637Z,6.75
2023-04-18T00:19:33.628Z,6.70
2023-04-18T00:20:33.612Z,6.65
2023-04-18T00:21:33.606Z,6.61
2023-04-18T00:22:33.587Z,6.55
2023-04-18T00:23:33.600Z,6.49
2023-04-18T00:24:33.559Z,6.43
2023-04-18T00:25:33.527Z,6.40
2023-04-18T00:26:33.550Z,6.39
2023-04-18T00:27:33.751Z,6.37
2023-04-18T00:28:33.514Z,6.35
2023-04-18T00:29:33.477Z,6.33
2023-04-18T00:30:33.550Z,6.31
2023-04-18T00:31:33.470Z,6.27
2023-04-18T00:32:34.207Z,6.23
2023-04-18T00:33:34.120Z,6.18
2023-04-18T00:34:34.165Z,6.13
2023-04-18T00:35:33.646Z,6.07
2023-04-18T00:36:33.399Z,6.03
2023-04-18T00:37:33.391Z,6.00
2023-04-18T00:38:33.367Z,5.96
2023-04-18T00:39:33.337Z,5.93
2023-04-18T00:40:34.022Z,5.89
2023-04-18T00:41:33.328Z,5.86
2023-04-18T00:42:33.995Z,5.81
2023-04-18T00:43:33.547Z,5.77
2023-04-18T00:44:33.266Z,5.76
2023-04-18T00:45:33.280Z,5.74
2023-04-18T00:46:33.324Z,5.72
2023-04-18T00:47:33.954Z,5.69
2023-04-18T00:48:33.239Z,5.67
2023-04-18T00:49:33.222Z,5.63
2023-04-18T00:50:33.905Z,5.59
2023-04-18T00:51:33.196Z,5.57
2023-04-18T00:52:33.201Z,5.54
2023-04-18T00:53:33.167Z,5.50
2023-04-18T00:54:33.138Z,5.45
2023-04-18T00:55:33.157Z,5.40
2023-04-18T00:56:33.124Z,5.35
2023-04-18T00:57:33.801Z,5.29
2023-04-18T00:58:33.109Z,5.24
2023-04-18T00:59:33.333Z,5.20
2023-04-18T01:00:33.096Z,5.16
2023-04-18T01:01:33.090Z,5.12
2023-04-18T01:02:33.113Z,5.09
2023-04-18T01:03:33.942Z,5.07
2023-04-18T01:04:33.130Z,5.04
2023-04-18T01:05:33.288Z,5.03
2023-04-18T01:06:33.021Z,5.04
2023-04-18T01:07:32.979Z,5.02
2023-04-18T01:08:32.975Z,4.98
2023-04-18T01:09:33.636Z,4.94
2023-04-18T01:10:32.919Z,4.92
2023-04-18T01:11:32.938Z,4.87
2023-04-18T01:12:32.917Z,4.83
2023-04-18T01:13:32.668Z,4.81
2023-04-18T01:14:32.677Z,4.79
2023-04-18T01:15:32.866Z,4.76
2023-04-18T01:16:32.913Z,4.74
2023-04-18T01:17:32.905Z,4.72
2023-04-18T01:18:32.832Z,4.70
2023-04-18T01:19:32.833Z,4.68
2023-04-18T01:20:32.715Z,4.67
2023-04-18T01:21:32.790Z,4.65
2023-04-18T01:22:33.549Z,4.63
2023-04-18T01:23:32.769Z,4.60
2023-04-18T01:24:32.753Z,4.56
2023-04-18T01:25:32.733Z,4.54
2023-04-18T01:26:32.730Z,4.52
2023-04-18T01:27:32.708Z,4.51
2023-04-18T01:28:32.004Z,4.51
2023-04-18T01:29:32.687Z,4.51
2023-04-18T01:30:32.647Z,4.51
2023-04-18T01:31:32.697Z,4.50
2023-04-18T01:32:32.700Z,4.49
2023-04-18T01:33:32.685Z,4.47
2023-04-18T01:34:32.633Z,4.45
2023-04-18T01:35:32.590Z,4.48
2023-04-18T01:36:32.601Z,4.49
2023-04-18T01:37:32.590Z,4.48
2023-04-18T01:38:32.568Z,4.46
2023-04-18T01:39:32.566Z,4.43
2023-04-18T01:40:32.343Z,4.40
2023-04-18T01:41:32.791Z,4.36
2023-04-18T01:42:32.512Z,4.34
2023-04-18T01:43:32.522Z,4.31
2023-04-18T01:44:32.488Z,4.28
2023-04-18T01:45:32.459Z,4.25
2023-04-18T01:46:33.275Z,4.24
2023-04-18T01:47:32.510Z,4.24
2023-04-18T01:48:32.436Z,4.23
2023-04-18T01:49:32.443Z,4.21
2023-04-18T01:50:33.165Z,4.18
2023-04-18T01:51:32.399Z,4.15
2023-04-18T01:52:32.410Z,4.14
2023-04-18T01:53:33.055Z,4.16
2023-04-18T01:54:32.359Z,4.17
2023-04-18T01:55:32.598Z,4.17
2023-04-18T01:56:33.012Z,4.15
2023-04-18T01:57:32.330Z,4.14
2023-04-18T01:58:32.311Z,4.13
2023-04-18T01:59:32.285Z,4.10
2023-04-18T02:00:32.281Z,4.07
2023-04-18T02:01:32.944Z,4.02
2023-04-18T02:02:32.378Z,3.99
2023-04-18T02:03:32.660Z,3.96
2023-04-18T02:04:32.220Z,3.93
2023-04-18T02:05:32.193Z,3.91
2023-04-18T02:06:32.198Z,3.88
2023-04-18T02:07:32.906Z,3.85
2023-04-18T02:08:32.219Z,3.82
2023-04-18T02:09:32.202Z,3.80
2023-04-18T02:10:32.114Z,3.78
2023-04-18T02:11:32.172Z,3.77
2023-04-18T02:12:32.140Z,3.76
2023-04-18T02:13:32.787Z,3.74
2023-04-18T02:14:32.094Z,3.72
2023-04-18T02:15:32.781Z,3.69
2023-04-18T02:16:32.792Z,3.66
2023-04-18T02:17:32.122Z,3.64
2023-04-18T02:18:32.050Z,3.62
2023-04-18T02:19:32.262Z,3.59
2023-04-18T02:20:32.005Z,3.58
2023-04-18T02:21:31.997Z,3.58
2023-04-18T02:22:31.982Z,3.58
2023-04-18T02:23:31.981Z,3.59
2023-04-18T02:24:32.089Z,3.61
2023-04-18T02:25:31.921Z,3.61
2023-04-18T02:26:31.946Z,3.60
2023-04-18T02:27:31.922Z,3.62
2023-04-18T02:28:31.909Z,3.63
2023-04-18T02:29:31.912Z,3.62
2023-04-18T02:30:31.856Z,3.60
2023-04-18T02:31:31.909Z,3.57
2023-04-18T02:32:31.586Z,3.54
2023-04-18T02:33:31.840Z,3.52
2023-04-18T02:34:31.821Z,3.50
2023-04-18T02:35:31.787Z,3.48
2023-04-18T02:36:31.570Z,3.46
2023-04-18T02:37:31.783Z,3.47
2023-04-18T02:38:31.772Z,3.48
2023-04-18T02:39:31.770Z,3.47
2023-04-18T02:40:31.560Z,3.47
2023-04-18T02:41:31.728Z,3.46
2023-04-18T02:42:31.722Z,3.44
2023-04-18T02:43:31.753Z,3.42
2023-04-18T02:44:31.695Z,3.41
2023-04-18T02:45:31.706Z,3.41
2023-04-18T02:46:31.656Z,3.41
2023-04-18T02:47:35.386Z,3.40
2023-04-18T02:48:32.684Z,3.39
2023-04-18T02:49:31.625Z,3.37
2023-04-18T02:50:31.616Z,3.34
2023-04-18T02:51:31.614Z,3.32
2023-04-18T02:52:32.298Z,3.31
2023-04-18T02:53:31.591Z,3.30
2023-04-18T02:54:32.288Z,3.28
2023-04-18T02:55:31.536Z,3.27
2023-04-18T02:56:32.268Z,3.25
2023-04-18T02:57:31.523Z,3.22
2023-04-18T02:58:31.502Z,3.20
2023-04-18T02:59:31.498Z,3.19
2023-04-18T03:00:31.516Z,3.17
2023-04-18T03:01:31.447Z,3.14
2023-04-18T03:02:31.562Z,3.11
2023-04-18T03:03:32.144Z,3.09
2023-04-18T03:04:31.671Z,3.09
2023-04-18T03:05:32.074Z,3.09
2023-04-18T03:06:31.410Z,3.08
2023-04-18T03:07:31.415Z,3.07
2023-04-18T03:08:31.416Z,3.08
2023-04-18T03:09:31.352Z,3.09
2023-04-18T03:10:31.356Z,3.10
2023-04-18T03:11:31.301Z,3.11
2023-04-18T03:12:31.315Z,3.14
2023-04-18T03:13:31.314Z,3.17
2023-04-18T03:14:31.290Z,3.21
2023-04-18T03:15:32.033Z,3.25
2023-04-18T03:16:31.941Z,3.27
2023-04-18T03:17:31.287Z,3.29
2023-04-18T03:18:31.248Z,3.28
2023-04-18T03:19:31.239Z,3.29
2023-04-18T03:20:31.180Z,3.32
2023-04-18T03:21:31.185Z,3.41
2023-04-18T03:22:31.187Z,3.47
2023-04-18T03:23:31.217Z,3.54
2023-04-18T03:24:31.147Z,3.59
2023-04-18T03:25:31.131Z,3.63
2023-04-18T03:26:31.796Z,3.70
2023-04-18T03:27:31.110Z,3.76
2023-04-18T03:28:31.112Z,3.80
2023-04-18T03:29:31.763Z,3.84
2023-04-18T03:30:31.056Z,3.88
2023-04-18T03:31:31.152Z,3.89
2023-04-18T03:32:31.090Z,3.95
2023-04-18T03:33:31.051Z,4.00
2023-04-18T03:34:30.791Z,4.01
2023-04-18T03:35:30.788Z,4.01
2023-04-18T03:36:30.785Z,4.00
2023-04-18T03:37:30.978Z,3.98
2023-04-18T03:38:30.958Z,3.96
2023-04-18T03:39:30.962Z,3.93
2023-04-18T03:40:30.793Z,3.92
2023-04-18T03:41:30.898Z,3.90
2023-04-18T03:42:30.928Z,3.87
2023-04-18T03:43:30.794Z,3.84
2023-04-18T03:44:30.611Z,3.85
2023-04-18T03:45:30.806Z,3.86
2023-04-18T03:46:30.856Z,3.94
2023-04-18T03:47:30.856Z,4.00
2023-04-18T03:48:30.804Z,4.07
2023-04-18T03:49:30.855Z,4.13
2023-04-18T03:50:31.524Z,4.17
2023-04-18T03:51:30.072Z,4.20
2023-04-18T03:52:30.098Z,4.21
2023-04-18T03:53:30.764Z,4.21
2023-04-18T03:54:30.769Z,4.20
2023-04-18T03:55:31.433Z,4.20
2023-04-18T03:56:31.420Z,4.19
2023-04-18T03:57:30.712Z,4.22
2023-04-18T03:58:31.373Z,4.25
2023-04-18T03:59:30.695Z,4.28
2023-04-18T04:00:31.340Z,4.33
2023-04-18T04:01:30.977Z,4.34
2023-04-18T04:02:30.750Z,4.33
2023-04-18T04:03:30.721Z,4.34
2023-04-18T04:04:30.641Z,4.38
2023-04-18T04:05:30.612Z,4.41
2023-04-18T04:06:30.563Z,4.40
2023-04-18T04:07:31.249Z,4.39
2023-04-18T04:08:30.579Z,4.40
2023-04-18T04:09:30.556Z,4.43
2023-04-18T04:10:30.517Z,4.47
2023-04-18T04:11:30.531Z,4.55
2023-04-18T04:12:30.515Z,4.62
2023-04-18T04:13:30.499Z,4.67
2023-04-18T04:14:30.492Z,4.67
2023-04-18T04:15:30.447Z,4.67
2023-04-18T04:16:30.533Z,4.66
2023-04-18T04:17:30.494Z,4.67
2023-04-18T04:18:30.433Z,4.68
2023-04-18T04:19:30.475Z,4.68
2023-04-18T04:20:30.448Z,4.69
2023-04-18T04:21:30.391Z,4.69
2023-04-18T04:22:30.415Z,4.67
2023-04-18T04:23:31.056Z,4.67
2023-04-18T04:24:30.357Z,4.67
2023-04-18T04:25:30.327Z,4.68
2023-04-18T04:26:30.327Z,4.70
2023-04-18T04:27:30.321Z,4.69
2023-04-18T04:28:30.291Z,4.67
2023-04-18T04:29:30.301Z,4.66
2023-04-18T04:30:30.985Z,4.66
2023-04-18T04:31:30.256Z,4.68
2023-04-18T04:32:30.315Z,4.86
2023-04-18T04:33:30.899Z,4.98
2023-04-18T04:34:30.901Z,5.04
2023-04-18T04:35:30.203Z,5.08
2023-04-18T04:36:30.167Z,5.11
2023-04-18T04:37:30.204Z,5.15
2023-04-18T04:38:30.159Z,5.19
2023-04-18T04:39:30.154Z,5.25
2023-04-18T04:40:30.153Z,5.29
2023-04-18T04:41:30.211Z,5.33
2023-04-18T04:42:30.804Z,5.35
2023-04-18T04:43:30.113Z,5.37
2023-04-18T04:44:30.786Z,5.41
2023-04-18T04:45:30.190Z,5.46
2023-04-18T04:46:30.790Z,5.51
2023-04-18T04:47:30.110Z,5.58
2023-04-18T04:48:30.728Z,5.65
2023-04-18T04:49:30.025Z,5.73
2023-04-18T04:50:29.999Z,5.82
2023-04-18T04:51:29.966Z,5.88
2023-04-18T04:52:29.969Z,5.95
2023-04-18T04:53:29.957Z,6.01
2023-04-18T04:54:29.953Z,6.05
2023-04-18T04:55:29.688Z,6.10
2023-04-18T04:56:29.882Z,6.16
2023-04-18T04:57:29.682Z,6.23
2023-04-18T04:58:29.893Z,6.30
2023-04-18T04:59:29.890Z,6.36
2023-04-18T05:00:29.865Z,6.40
2023-04-18T05:01:29.883Z,6.45
2023-04-18T05:02:30.798Z,6.50
2023-04-18T05:03:29.908Z,6.54
2023-04-18T05:04:29.952Z,6.57
2023-04-18T05:05:29.805Z,6.61
2023-04-18T05:06:29.768Z,6.65
2023-04-18T05:07:30.463Z,6.69
2023-04-18T05:08:29.759Z,6.72
2023-04-18T05:09:29.735Z,6.74
2023-04-18T05:10:30.534Z,6.75
2023-04-18T05:11:29.704Z,6.75
2023-04-18T05:12:30.695Z,6.76
2023-04-18T05:13:30.417Z,6.78
2023-04-18T05:14:30.402Z,6.78
2023-04-18T05:15:29.671Z,6.77
2023-04-18T05:16:30.443Z,6.77
2023-04-18T05:17:29.693Z,6.77
2023-04-18T05:18:29.639Z,6.76
2023-04-18T05:19:29.605Z,6.76
2023-04-18T05:20:29.620Z,6.75
2023-04-18T05:21:29.603Z,6.74
2023-04-18T05:22:30.252Z,6.72
2023-04-18T05:23:30.244Z,6.72
2023-04-18T05:24:30.227Z,6.72
2023-04-18T05:25:29.501Z,6.73
2023-04-18T05:26:29.510Z,6.72
2023-04-18T05:27:28.768Z,6.72
2023-04-18T05:28:29.489Z,6.73
2023-04-18T05:29:30.160Z,6.74
2023-04-18T05:30:30.170Z,6.76
2023-04-18T05:31:29.556Z,6.78
2023-04-18T05:32:29.677Z,6.80
2023-04-18T05:33:30.092Z,6.81
2023-04-18T05:34:30.076Z,6.84
2023-04-18T05:35:28.692Z,6.85
2023-04-18T05:36:29.378Z,6.88
2023-04-18T05:37:29.385Z,6.91
2023-04-18T05:38:29.349Z,6.92
2023-04-18T05:39:29.351Z,6.95
2023-04-18T05:40:29.320Z,6.98
2023-04-18T05:41:29.321Z,7.00
2023-04-18T05:42:29.301Z,7.04
2023-04-18T05:43:29.299Z,7.07
2023-04-18T05:44:29.273Z,7.10
2023-04-18T05:45:29.232Z,7.13
2023-04-18T05:46:29.499Z,7.16
2023-04-18T05:47:29.252Z,7.20
2023-04-18T05:48:29.226Z,7.25
2023-04-18T05:49:29.205Z,7.28
2023-04-18T05:50:29.163Z,7.27
2023-04-18T05:51:28.916Z,7.26
2023-04-18T05:52:29.181Z,7.24
2023-04-18T05:53:29.197Z,7.22
2023-04-18T05:54:28.898Z,7.20
2023-04-18T05:55:28.906Z,7.17
2023-04-18T05:56:28.901Z,7.13
2023-04-18T05:57:29.094Z,7.07
2023-04-18T05:58:29.099Z,7.03
2023-04-18T05:59:28.917Z,6.99
2023-04-18T06:00:29.034Z,6.97
2023-04-18T06:01:29.050Z,6.95
2023-04-18T06:02:29.169Z,6.94
2023-04-18T06:03:29.272Z,6.94
2023-04-18T06:04:29.010Z,6.94
2023-04-18T06:05:29.271Z,6.94
2023-04-18T06:06:28.993Z,6.94
2023-04-18T06:07:28.918Z,6.95
2023-04-18T06:08:28.958Z,6.97
2023-04-18T06:09:28.935Z,6.99
2023-04-18T06:10:29.935Z,7.03
2023-04-18T06:11:29.654Z,7.08
2023-04-18T06:12:28.895Z,7.12
2023-04-18T06:13:28.903Z,7.17
2023-04-18T06:14:28.872Z,7.23
2023-04-18T06:15:28.182Z,7.29
2023-04-18T06:16:28.882Z,7.33
2023-04-18T06:17:28.839Z,7.38
2023-04-18T06:18:28.810Z,7.44
2023-04-18T06:19:28.819Z,7.49
2023-04-18T06:20:28.784Z,7.54
2023-04-18T06:21:28.752Z,7.58
2023-04-18T06:22:28.777Z,7.62
2023-04-18T06:23:28.416Z,7.64
2023-04-18T06:24:30.160Z,7.69
2023-04-18T06:25:28.761Z,7.73
2023-04-18T06:26:28.495Z,7.76
2023-04-18T06:27:31.514Z,7.78
2023-04-18T06:28:28.695Z,7.80
2023-04-18T06:29:29.339Z,7.83
2023-04-18T06:30:29.338Z,7.85
2023-04-18T06:31:27.998Z,7.88
2023-04-18T06:32:28.641Z,7.93
2023-04-18T06:33:28.615Z,7.96
2023-04-18T06:34:28.607Z,7.99
2023-04-18T06:35:28.580Z,7.98
2023-04-18T06:36:28.547Z,7.98
2023-04-18T06:37:29.292Z,8.03
2023-04-18T06:38:28.542Z,8.06
2023-04-18T06:39:28.539Z,8.07
2023-04-18T06:40:28.530Z,8.09
2023-04-18T06:41:28.482Z,8.13
2023-04-18T06:42:29.189Z,8.19
2023-04-18T06:43:28.471Z,8.27
2023-04-18T06:44:29.164Z,8.37
2023-04-18T06:45:28.516Z,8.46
2023-04-18T06:46:29.367Z,8.54
2023-04-18T06:47:27.728Z,8.63
2023-04-18T06:48:28.431Z,8.73
2023-04-18T06:49:28.387Z,8.84
2023-04-18T06:50:28.401Z,8.88
2023-04-18T06:51:28.360Z,8.95
2023-04-18T06:52:28.351Z,9.04
2023-04-18T06:53:28.232Z,9.10
2023-04-18T06:54:28.341Z,9.16
2023-04-18T06:55:27.585Z,9.15
2023-04-18T06:56:28.270Z,9.16
2023-04-18T06:57:28.318Z,9.16
2023-04-18T06:58:28.270Z,9.22
2023-04-18T06:59:28.250Z,9.29
2023-04-18T07:00:29.005Z,9.32
2023-04-18T07:01:28.221Z,9.33
2023-04-18T07:02:28.346Z,9.24
2023-04-18T07:03:27.664Z,9.12
2023-04-18T07:04:28.977Z,9.06
2023-04-18T07:05:28.177Z,9.01
2023-04-18T07:06:28.163Z,8.96
2023-04-18T07:07:28.131Z,8.92
2023-04-18T07:08:28.129Z,8.93
2023-04-18T07:09:28.784Z,8.91
2023-04-18T07:10:28.107Z,8.90
2023-04-18T07:11:27.388Z,8.93
2023-04-18T07:12:28.117Z,8.94
2023-04-18T07:13:28.058Z,8.96
2023-04-18T07:14:28.052Z,8.97
2023-04-18T07:15:28.033Z,9.00
2023-04-18T07:16:28.052Z,9.02
2023-04-18T07:17:27.832Z,9.10
2023-04-18T07:18:37.441Z,9.18
2023-04-18T07:19:28.964Z,9.25
2023-04-18T07:20:27.981Z,9.30
2023-04-18T07:21:28.627Z,9.44
2023-04-18T07:22:27.915Z,9.64
2023-04-18T07:23:27.928Z,9.81
2023-04-18T07:24:27.925Z,10.00
2023-04-18T07:25:28.588Z,10.13
2023-04-18T07:26:27.886Z,10.26
2023-04-18T07:27:27.844Z,10.51
2023-04-18T07:28:27.883Z,10.64
2023-04-18T07:29:27.889Z,10.73
2023-04-18T07:30:27.846Z,10.71
2023-04-18T07:31:28.778Z,10.78
2023-04-18T07:32:27.841Z,10.79
2023-04-18T07:33:29.247Z,10.82
2023-04-18T07:34:28.500Z,10.76
2023-04-18T07:35:28.526Z,10.59
2023-04-18T07:36:28.443Z,10.48
2023-04-18T07:37:27.738Z,10.47
2023-04-18T07:38:27.717Z,10.44
2023-04-18T07:39:27.719Z,10.48
2023-04-18T07:40:28.366Z,10.42
2023-04-18T07:41:27.661Z,10.39
2023-04-18T07:42:27.702Z,10.38
2023-04-18T07:43:27.659Z,10.36
2023-04-18T07:44:27.646Z,10.35
2023-04-18T07:45:27.724Z,10.40
2023-04-18T07:46:27.660Z,10.47
2023-04-18T07:47:29.967Z,10.66
2023-04-18T07:48:27.616Z,10.75
2023-04-18T07:49:27.570Z,10.85
2023-04-18T07:50:27.572Z,11.03
2023-04-18T07:51:27.536Z,11.29
2023-04-18T07:52:27.536Z,11.69
2023-04-18T07:53:27.527Z,11.89
2023-04-18T07:54:27.514Z,12.24
2023-04-18T07:55:27.513Z,12.45
2023-04-18T07:56:27.481Z,12.67
2023-04-18T07:57:27.438Z,12.71
2023-04-18T07:58:27.008Z,12.65
2023-04-18T07:59:27.481Z,12.54
2023-04-18T08:00:27.488Z,12.49
2023-04-18T08:01:27.098Z,12.52
2023-04-18T08:02:27.464Z,12.43
2023-04-18T08:03:28.343Z,12.38
2023-04-18T08:04:29.977Z,12.37
2023-04-18T08:05:27.384Z,12.43
2023-04-18T08:06:27.947Z,12.49
2023-04-18T08:07:27.306Z,12.60
2023-04-18T08:08:27.326Z,12.57
2023-04-18T08:09:27.323Z,12.73
2023-04-18T08:10:27.115Z,12.94
2023-04-18T08:11:27.278Z,13.25
2023-04-18T08:12:27.240Z,13.49
2023-04-18T08:13:27.022Z,13.56
2023-04-18T08:14:27.033Z,13.52
2023-04-18T08:15:27.223Z,13.27
2023-04-18T08:16:27.305Z,12.96
2023-04-18T08:17:27.229Z,13.04
2023-04-18T08:18:27.204Z,13.24
2023-04-18T08:19:27.203Z,13.56
2023-04-18T08:20:27.227Z,13.80
2023-04-18T08:21:27.030Z,13.98
2023-04-18T08:22:27.023Z,14.12
2023-04-18T08:23:27.020Z,13.93
2023-04-18T08:24:26.528Z,13.77
2023-04-18T08:25:27.802Z,13.97
2023-04-18T08:26:27.083Z,13.84
2023-04-18T08:27:27.028Z,14.15
2023-04-18T08:28:27.056Z,14.11
2023-04-18T08:29:27.039Z,13.62
2023-04-18T08:30:27.737Z,13.04
2023-04-18T08:31:27.077Z,12.55
2023-04-18T08:32:27.045Z,11.99
2023-04-18T08:33:27.708Z,11.50
2023-04-18T08:34:26.972Z,11.26
2023-04-18T08:35:26.961Z,11.05
2023-04-18T08:36:27.016Z,10.95
2023-04-18T08:37:27.621Z,10.85
2023-04-18T08:38:27.012Z,10.77
2023-04-18T08:39:27.007Z,10.70
2023-04-18T08:40:26.922Z,10.67
2023-04-18T08:41:26.862Z,10.64
2023-04-18T08:42:26.849Z,10.62
2023-04-18T08:43:26.845Z,10.55
2023-04-18T08:44:26.867Z,10.61
2023-04-18T08:45:26.829Z,10.75
2023-04-18T08:46:26.970Z,10.83
2023-04-18T08:47:26.789Z,10.86
2023-04-18T08:48:26.774Z,10.85
2023-04-18T08:49:27.438Z,10.93
2023-04-18T08:50:26.742Z,11.01
2023-04-18T08:51:26.766Z,11.13
2023-04-18T08:52:26.687Z,11.19
2023-04-18T08:53:26.726Z,11.17
2023-04-18T08:54:27.335Z,11.18
2023-04-18T08:55:26.667Z,11.15
2023-04-18T08:56:26.660Z,11.08
2023-04-18T08:57:27.425Z,10.96
2023-04-18T08:58:26.627Z,10.79
2023-04-18T08:59:26.616Z,10.76
2023-04-18T09:00:26.594Z,10.74
2023-04-18T09:01:26.614Z,10.75
2023-04-18T09:02:26.647Z,10.73
2023-04-18T09:03:26.620Z,10.79
2023-04-18T09:04:26.570Z,10.86
2023-04-18T09:05:26.535Z,10.96
2023-04-18T09:06:27.778Z,11.04
2023-04-18T09:07:26.473Z,11.02
2023-04-18T09:08:26.486Z,10.96
2023-04-18T09:09:26.486Z,11.01
2023-04-18T09:10:26.476Z,11.07
2023-04-18T09:11:27.122Z,11.04
2023-04-18T09:12:27.116Z,10.97
2023-04-18T09:13:26.419Z,10.96
2023-04-18T09:14:26.409Z,10.90
2023-04-18T09:15:26.395Z,10.73
2023-04-18T09:16:26.437Z,10.69
2023-04-18T09:17:26.386Z,10.68
2023-04-18T09:18:26.379Z,10.69
2023-04-18T09:19:26.349Z,10.68
2023-04-18T09:20:26.370Z,10.61
2023-04-18T09:21:26.364Z,10.57
2023-04-18T09:22:26.999Z,10.55
2023-04-18T09:23:26.292Z,10.60
2023-04-18T09:24:26.955Z,10.68
2023-04-18T09:25:26.972Z,10.83
2023-04-18T09:26:26.292Z,10.99
2023-04-18T09:27:26.230Z,11.08
2023-04-18T09:28:26.198Z,11.00
2023-04-18T09:29:26.218Z,10.99
2023-04-18T09:30:26.198Z,10.98
2023-04-18T09:31:26.296Z,10.91
2023-04-18T09:32:26.190Z,10.87
2023-04-18T09:33:26.134Z,10.80
2023-04-18T09:34:25.913Z,10.68
2023-04-18T09:35:25.902Z,10.62
2023-04-18T09:36:26.149Z,10.62
2023-04-18T09:37:26.118Z,10.60
2023-04-18T09:38:26.072Z,10.57
2023-04-18T09:39:26.082Z,10.64
2023-04-18T09:40:26.077Z,10.67
2023-04-18T09:41:26.043Z,10.82
2023-04-18T09:42:28.690Z,11.00
2023-04-18T09:43:26.023Z,11.33
2023-04-18T09:44:26.014Z,11.46
2023-04-18T09:45:26.739Z,11.57
2023-04-18T09:46:26.005Z,11.63
2023-04-18T09:47:25.969Z,11.65
2023-04-18T09:48:25.961Z,11.49
2023-04-18T09:49:26.952Z,11.19
2023-04-18T09:50:26.637Z,11.03
2023-04-18T09:51:26.637Z,11.00
2023-04-18T09:52:26.636Z,10.88
2023-04-18T09:53:26.613Z,10.74
2023-04-18T09:54:26.589Z,10.58
2023-04-18T09:55:25.854Z,10.46
2023-04-18T09:56:26.532Z,10.33
2023-04-18T09:57:26.581Z,10.24
2023-04-18T09:58:25.106Z,10.23
2023-04-18T09:59:25.793Z,10.23
2023-04-18T10:00:25.785Z,10.20
2023-04-18T10:01:25.524Z,10.14
2023-04-18T10:02:25.853Z,10.11
2023-04-18T10:03:25.808Z,10.12
2023-04-18T10:04:25.806Z,10.12
2023-04-18T10:05:25.769Z,10.15
2023-04-18T10:06:25.697Z,10.16
2023-04-18T10:07:25.673Z,10.21
2023-04-18T10:08:25.678Z,10.26
2023-04-18T10:09:25.705Z,10.29
2023-04-18T10:10:25.636Z,10.28
2023-04-18T10:11:25.695Z,10.27
2023-04-18T10:12:26.320Z,10.34
2023-04-18T10:13:25.576Z,10.36
2023-04-18T10:14:27.380Z,10.41
2023-04-18T10:15:26.265Z,10.45
2023-04-18T10:16:25.609Z,10.50
2023-04-18T10:17:28.060Z,10.58
2023-04-18T10:18:25.533Z,10.73
2023-04-18T10:19:25.522Z,10.76
2023-04-18T10:20:25.503Z,10.88
2023-04-18T10:21:25.489Z,10.92
2023-04-18T10:22:25.481Z,10.96
2023-04-18T10:23:27.038Z,11.04
2023-04-18T10:24:25.456Z,11.02
2023-04-18T10:25:25.454Z,10.97
2023-04-18T10:26:25.429Z,11.00
2023-04-18T10:27:25.434Z,11.22
2023-04-18T10:28:25.379Z,11.43
2023-04-18T10:29:25.402Z,11.70
2023-04-18T10:30:25.168Z,11.89
2023-04-18T10:31:25.175Z,11.94
2023-04-18T10:32:25.170Z,11.86
2023-04-18T10:33:31.014Z,11.81
2023-04-18T10:34:26.326Z,11.89
2023-04-18T10:35:25.317Z,11.97
2023-04-18T10:36:25.312Z,11.95
2023-04-18T10:37:25.274Z,11.90
2023-04-18T10:38:25.246Z,11.72
2023-04-18T10:39:25.253Z,11.50
2023-04-18T10:40:25.228Z,11.34
2023-04-18T10:41:25.254Z,11.24
2023-04-18T10:42:25.218Z,11.22
2023-04-18T10:43:25.181Z,11.21
2023-04-18T10:44:25.194Z,11.18
2023-04-18T10:45:25.183Z,11.20
2023-04-18T10:46:32.338Z,11.21
2023-04-18T10:47:26.218Z,11.08
2023-04-18T10:48:25.130Z,11.07
2023-04-18T10:49:27.322Z,11.09
2023-04-18T10:50:25.771Z,11.06
2023-04-18T10:51:26.037Z,11.09
2023-04-18T10:52:25.797Z,11.24
2023-04-18T10:53:25.799Z,11.62
2023-04-18T10:54:25.772Z,11.87
2023-04-18T10:55:25.757Z,12.20
2023-04-18T10:56:25.014Z,12.49
2023-04-18T10:57:25.009Z,12.74
2023-04-18T10:58:24.959Z,13.02
2023-04-18T10:59:24.979Z,13.23
2023-04-18T11:00:24.978Z,13.25
2023-04-18T11:01:24.358Z,13.34
2023-04-18T11:02:24.545Z,13.38
2023-04-18T11:03:24.940Z,13.27
2023-04-18T11:04:24.973Z,13.21
2023-04-18T11:05:25.642Z,13.05
2023-04-18T11:06:24.892Z,12.92
2023-04-18T11:07:24.873Z,12.94
2023-04-18T11:08:24.832Z,13.01
2023-04-18T11:09:25.527Z,13.17
2023-04-18T11:10:24.831Z,13.41
2023-04-18T11:11:24.809Z,13.51
2023-04-18T11:12:24.848Z,13.46
2023-04-18T11:13:24.770Z,13.23
2023-04-18T11:14:24.757Z,13.12
2023-04-18T11:15:24.753Z,12.93
2023-04-18T11:16:25.519Z,12.77
2023-04-18T11:17:24.809Z,12.51
2023-04-18T11:18:23.992Z,12.40
2023-04-18T11:19:24.708Z,12.33
2023-04-18T11:20:24.683Z,12.42
2023-04-18T11:21:25.343Z,12.54
2023-04-18T11:22:24.664Z,12.56
2023-04-18T11:23:24.638Z,12.45
2023-04-18T11:24:24.688Z,12.32
2023-04-18T11:25:24.638Z,12.23
2023-04-18T11:26:24.652Z,12.20
2023-04-18T11:27:24.602Z,12.16
2023-04-18T11:28:24.577Z,12.13
2023-04-18T11:29:24.574Z,12.07
2023-04-18T11:30:24.557Z,12.11
2023-04-18T11:31:24.607Z,12.18
2023-04-18T11:32:24.802Z,12.16
2023-04-18T11:33:24.534Z,12.13
2023-04-18T11:34:24.014Z,11.97
2023-04-18T11:35:24.495Z,11.87
2023-04-18T11:36:24.481Z,11.86
2023-04-18T11:37:24.452Z,11.91
2023-04-18T11:38:24.413Z,11.92
2023-04-18T11:39:24.472Z,11.82
2023-04-18T11:40:25.086Z,11.78
2023-04-18T11:41:24.388Z,11.69
2023-04-18T11:42:24.008Z,11.68
2023-04-18T11:43:24.353Z,11.65
2023-04-18T11:44:24.349Z,11.63
2023-04-18T11:45:24.373Z,11.60
2023-04-18T11:46:24.376Z,11.54
2023-04-18T11:47:24.339Z,11.50
2023-04-18T11:48:24.274Z,11.52
2023-04-18T11:49:24.287Z,11.55
2023-04-18T11:50:23.818Z,11.57
2023-04-18T11:51:24.250Z,11.57
2023-04-18T11:52:24.245Z,11.58
2023-04-18T11:53:24.209Z,11.70
2023-04-18T11:54:24.214Z,11.85
2023-04-18T11:55:24.262Z,11.89
2023-04-18T11:56:23.967Z,11.92
2023-04-18T11:57:24.167Z,11.96
2023-04-18T11:58:24.038Z,11.95
2023-04-18T11:59:24.384Z,11.89
2023-04-18T12:00:24.132Z,11.90
2023-04-18T12:01:24.137Z,11.92
2023-04-18T12:02:24.870Z,12.04
2023-04-18T12:03:24.212Z,12.17
2023-04-18T12:04:24.260Z,12.25
2023-04-18T12:05:25.015Z,12.22
2023-04-18T12:06:25.175Z,12.16
2023-04-18T12:07:24.773Z,12.08
2023-04-18T12:08:24.758Z,12.02
2023-04-18T12:09:24.754Z,12.00
2023-04-18T12:10:24.028Z,11.97
2023-04-18T12:11:24.727Z,12.01
2023-04-18T12:12:23.978Z,12.05
2023-04-18T12:13:23.942Z,12.09
2023-04-18T12:14:23.946Z,11.98
2023-04-18T12:15:23.486Z,11.89
2023-04-18T12:16:23.958Z,11.85
2023-04-18T12:17:24.000Z,11.77
2023-04-18T12:18:23.861Z,11.73
2023-04-18T12:19:23.884Z,11.70
2023-04-18T12:20:23.861Z,11.65
2023-04-18T12:21:23.840Z,11.71
2023-04-18T12:22:23.836Z,11.80
2023-04-18T12:23:23.789Z,11.87
2023-04-18T12:24:25.061Z,11.90
2023-04-18T12:25:26.933Z,11.98
2023-04-18T12:26:23.475Z,12.10
2023-04-18T12:27:23.757Z,12.24
2023-04-18T12:28:23.736Z,12.39
2023-04-18T12:29:24.415Z,12.57
2023-04-18T12:30:23.725Z,12.77
2023-04-18T12:31:23.861Z,13.06
2023-04-18T12:32:23.716Z,13.23
2023-04-18T12:33:23.666Z,13.42
2023-04-18T12:34:23.689Z,13.48
2023-04-18T12:35:23.646Z,13.54
2023-04-18T12:36:23.636Z,13.62
2023-04-18T12:37:24.348Z,13.68
2023-04-18T12:38:23.744Z,13.78
2023-04-18T12:39:24.268Z,13.78
2023-04-18T12:40:23.586Z,13.98
2023-04-18T12:41:23.628Z,14.15
2023-04-18T12:42:23.562Z,14.25
2023-04-18T12:43:23.546Z,14.52
2023-04-18T12:44:23.522Z,14.53
2023-04-18T12:45:24.209Z,14.53
2023-04-18T12:46:23.513Z,14.53
2023-04-18T12:47:24.193Z,14.42
2023-04-18T12:48:23.251Z,14.31
2023-04-18T12:49:23.248Z,14.22
2023-04-18T12:50:23.238Z,14.11
2023-04-18T12:51:23.448Z,14.07
2023-04-18T12:52:23.461Z,14.06
2023-04-18T12:53:23.636Z,13.96
2023-04-18T12:54:23.376Z,13.74
2023-04-18T12:55:24.042Z,13.65
2023-04-18T12:56:23.354Z,13.65
2023-04-18T12:57:23.355Z,13.67
2023-04-18T12:58:24.011Z,13.71
2023-04-18T12:59:23.296Z,13.70
2023-04-18T13:00:23.328Z,13.78
2023-04-18T13:01:23.976Z,13.89
2023-04-18T13:02:24.206Z,13.93
2023-04-18T13:03:23.381Z,13.92
2023-04-18T13:04:24.256Z,13.93
2023-04-18T13:05:23.966Z,13.86
2023-04-18T13:06:23.950Z,13.69
2023-04-18T13:07:23.228Z,13.59